createdAt,value
2018-01-26T00:02:11.990Z,8.80
2018-01-26T00:04:40.268Z,8.80
2018-01-26T00:07:08.551Z,8.80
2018-01-26T00:09:36.824Z,8.80
2018-01-26T00:12:05.075Z,8.80
2018-01-26T00:14:33.371Z,8.80
2018-01-26T00:17:01.695Z,8.80
2018-01-26T00:19:29.980Z,8.80
2018-01-26T00:21:58.299Z,8.80
2018-01-26T00:24:26.548Z,8.80
2018-01-26T00:26:54.818Z,8.80
2018-01-26T00:29:23.042Z,8.80
2018-01-26T00:31:51.405Z,8.80
2018-01-26T00:34:19.693Z,8.80
2018-01-26T00:36:47.977Z,8.80
2018-01-26T00:39:16.266Z,8.80
2018-01-26T00:41:45.260Z,8.90
2018-01-26T00:44:14.248Z,8.80
2018-01-26T00:46:42.477Z,8.90
2018-01-26T00:49:11.507Z,8.90
2018-01-26T00:51:39.760Z,8.80
2018-01-26T00:54:08.792Z,8.90
2018-01-26T00:56:37.099Z,8.80
2018-01-26T00:59:05.333Z,8.80
2018-01-26T01:01:33.623Z,8.80
2018-01-26T01:04:01.857Z,8.90
2018-01-26T01:06:30.109Z,8.90
2018-01-26T01:08:58.412Z,8.90
2018-01-26T01:11:27.450Z,8.90
2018-01-26T01:13:55.755Z,8.90
2018-01-26T01:16:24.027Z,8.90
2018-01-26T01:18:53.154Z,8.90
2018-01-26T01:21:22.186Z,8.90
2018-01-26T01:23:50.459Z,8.90
2018-01-26T01:26:18.763Z,8.90
2018-01-26T01:28:47.039Z,8.90
2018-01-26T01:31:15.301Z,9.00
2018-01-26T01:33:43.533Z,9.00
2018-01-26T01:36:12.577Z,9.00
2018-01-26T01:38:40.868Z,8.90
2018-01-26T01:41:09.134Z,8.90
2018-01-26T01:43:37.383Z,8.90
2018-01-26T01:46:05.659Z,8.90
2018-01-26T01:48:33.917Z,8.90
2018-01-26T01:51:02.156Z,8.90
2018-01-26T01:53:30.391Z,8.90
2018-01-26T01:55:58.667Z,8.90
2018-01-26T01:58:26.903Z,8.90
2018-01-26T02:00:55.955Z,8.90
2018-01-26T02:03:24.227Z,8.80
2018-01-26T02:05:52.854Z,8.90
2018-01-26T02:08:21.077Z,8.90
2018-01-26T02:10:49.311Z,8.90
2018-01-26T02:13:17.560Z,8.80
2018-01-26T02:15:45.843Z,8.80
2018-01-26T02:18:14.449Z,8.80
2018-01-26T02:20:42.698Z,8.80
2018-01-26T02:23:10.941Z,8.80
2018-01-26T02:25:39.200Z,8.90
2018-01-26T02:28:08.208Z,8.90
2018-01-26T02:30:36.452Z,8.90
2018-01-26T02:33:05.503Z,8.90
2018-01-26T02:35:33.808Z,8.90
2018-01-26T02:38:02.084Z,8.90
2018-01-26T02:40:30.347Z,9.00
2018-01-26T02:42:58.631Z,9.00
2018-01-26T02:45:26.861Z,9.00
2018-01-26T02:47:55.123Z,9.00
2018-01-26T02:50:24.916Z,9.00
2018-01-26T02:52:53.226Z,8.90
2018-01-26T02:55:21.522Z,9.00
2018-01-26T02:57:49.799Z,8.90
2018-01-26T03:00:18.046Z,8.90
2018-01-26T03:02:47.185Z,8.90
2018-01-26T03:05:15.420Z,8.90
2018-01-26T03:07:44.417Z,8.80
2018-01-26T03:10:13.462Z,8.80
2018-01-26T03:12:41.705Z,8.80
2018-01-26T03:15:10.000Z,8.80
2018-01-26T03:17:38.295Z,8.80
2018-01-26T03:20:06.812Z,8.80
2018-01-26T03:22:35.086Z,8.80
2018-01-26T03:25:04.081Z,8.80
2018-01-26T03:27:33.124Z,8.80
2018-01-26T03:30:01.412Z,8.80
2018-01-26T03:32:29.660Z,8.80
2018-01-26T03:34:57.950Z,8.80
2018-01-26T03:37:26.232Z,8.70
2018-01-26T03:39:54.488Z,8.80
2018-01-26T03:42:22.776Z,8.80
2018-01-26T03:44:51.069Z,8.80
2018-01-26T03:47:19.363Z,8.80
2018-01-26T03:49:47.632Z,8.80
2018-01-26T03:52:15.946Z,8.80
2018-01-26T03:54:44.163Z,8.80
2018-01-26T03:57:12.632Z,8.80
2018-01-26T03:59:40.924Z,8.80
2018-01-26T04:02:09.196Z,8.80
2018-01-26T04:04:37.519Z,8.80
2018-01-26T04:07:05.787Z,8.70
2018-01-26T04:09:34.029Z,8.80
2018-01-26T04:12:02.276Z,8.80
2018-01-26T04:14:31.318Z,8.80
2018-01-26T04:16:59.595Z,8.80
2018-01-26T04:19:27.867Z,8.80
2018-01-26T04:21:56.175Z,8.80
2018-01-26T04:24:24.401Z,8.80
2018-01-26T04:26:53.353Z,8.80
2018-01-26T04:29:21.592Z,8.80
2018-01-26T04:31:49.829Z,8.80
2018-01-26T04:34:18.870Z,8.80
2018-01-26T04:36:47.109Z,8.80
2018-01-26T04:39:15.391Z,8.80
2018-01-26T04:41:44.442Z,8.80
2018-01-26T04:44:12.693Z,8.80
2018-01-26T04:46:40.983Z,8.80
2018-01-26T04:49:09.222Z,8.80
2018-01-26T04:51:37.490Z,8.80
2018-01-26T04:54:05.736Z,8.80
2018-01-26T04:56:34.293Z,8.80
2018-01-26T04:59:02.584Z,8.80
2018-01-26T05:01:30.851Z,8.80
2018-01-26T05:03:59.093Z,8.80
2018-01-26T05:06:27.371Z,8.80
2018-01-26T05:08:55.658Z,8.80
2018-01-26T05:11:23.932Z,8.80
2018-01-26T05:13:52.926Z,8.70
2018-01-26T05:16:21.208Z,8.70
2018-01-26T05:18:50.090Z,8.60
2018-01-26T05:21:18.391Z,8.60
2018-01-26T05:23:46.663Z,8.60
2018-01-26T05:26:14.994Z,8.60
2018-01-26T05:28:43.984Z,8.60
2018-01-26T05:31:12.997Z,8.60
2018-01-26T05:33:41.286Z,8.60
2018-01-26T05:36:09.564Z,8.60
2018-01-26T05:38:37.863Z,8.60
2018-01-26T05:41:06.150Z,8.60
2018-01-26T05:43:34.384Z,8.60
2018-01-26T05:46:02.623Z,8.70
2018-01-26T05:48:31.092Z,8.70
2018-01-26T05:50:59.341Z,8.60
2018-01-26T05:53:27.627Z,8.60
2018-01-26T05:55:55.932Z,8.70
2018-01-26T05:58:25.026Z,8.60
2018-01-26T06:00:53.316Z,8.60
2018-01-26T06:03:21.619Z,8.60
2018-01-26T06:05:50.662Z,8.70
2018-01-26T06:08:18.955Z,8.70
2018-01-26T06:10:47.222Z,8.70
2018-01-26T06:13:15.627Z,8.70
2018-01-26T06:15:44.915Z,8.60
2018-01-26T06:18:13.506Z,8.60
2018-01-26T06:20:41.769Z,8.70
2018-01-26T06:23:10.012Z,8.60
2018-01-26T06:25:38.320Z,8.60
2018-01-26T06:28:06.571Z,8.60
2018-01-26T06:30:34.852Z,8.60
2018-01-26T06:33:03.150Z,8.60
2018-01-26T06:35:32.195Z,8.70
2018-01-26T06:38:01.271Z,8.70
2018-01-26T06:40:29.486Z,8.70
2018-01-26T06:42:57.759Z,8.70
2018-01-26T06:45:26.009Z,8.70
2018-01-26T06:47:55.004Z,8.70
2018-01-26T06:50:23.326Z,8.70
2018-01-26T06:52:51.603Z,8.70
2018-01-26T06:55:19.884Z,8.70
2018-01-26T06:57:48.190Z,8.70
2018-01-26T07:00:16.480Z,8.60
2018-01-26T07:02:44.742Z,8.60
2018-01-26T07:05:13.853Z,8.60
2018-01-26T07:07:42.878Z,8.60
2018-01-26T07:10:11.133Z,8.60
2018-01-26T07:12:40.174Z,8.50
2018-01-26T07:15:08.457Z,8.50
2018-01-26T07:17:36.692Z,8.50
2018-01-26T07:20:05.006Z,8.50
2018-01-26T07:22:34.060Z,8.50
2018-01-26T07:25:03.096Z,8.50
2018-01-26T07:27:31.398Z,8.50
2018-01-26T07:29:59.623Z,8.50
2018-01-26T07:32:27.912Z,8.40
2018-01-26T07:34:56.174Z,8.40
2018-01-26T07:37:24.464Z,8.40
2018-01-26T07:39:52.700Z,8.40
2018-01-26T07:42:21.771Z,8.50
2018-01-26T07:44:50.054Z,8.50
2018-01-26T07:47:18.391Z,8.50
2018-01-26T07:49:46.660Z,8.50
2018-01-26T07:52:14.931Z,8.60
2018-01-26T07:54:43.213Z,8.60
2018-01-26T07:57:11.487Z,8.50
2018-01-26T07:59:39.794Z,8.50
2018-01-26T08:02:08.059Z,8.60
2018-01-26T08:04:37.139Z,8.50
2018-01-26T08:07:05.395Z,8.50
2018-01-26T08:09:34.404Z,8.50
2018-01-26T08:12:02.685Z,8.50
2018-01-26T08:14:30.936Z,8.60
2018-01-26T08:17:00.027Z,8.60
2018-01-26T08:19:28.290Z,8.60
2018-01-26T08:21:56.566Z,8.60
2018-01-26T08:24:24.833Z,8.60
2018-01-26T08:26:53.056Z,8.70
2018-01-26T08:29:21.316Z,8.60
2018-01-26T08:31:50.362Z,8.70
2018-01-26T08:34:18.680Z,8.70
2018-01-26T08:36:46.955Z,8.80
2018-01-26T08:39:15.220Z,8.80
2018-01-26T08:41:43.503Z,8.80
2018-01-26T08:44:11.729Z,8.90
2018-01-26T08:46:39.977Z,8.90
2018-01-26T08:49:08.979Z,9.00
2018-01-26T08:51:37.305Z,9.00
2018-01-26T08:54:05.524Z,9.00
2018-01-26T08:56:33.819Z,9.10
2018-01-26T08:59:02.115Z,9.10
2018-01-26T09:01:31.291Z,9.20
2018-01-26T09:04:00.319Z,9.30
2018-01-26T09:06:28.927Z,9.30
2018-01-26T09:08:57.149Z,9.30
2018-01-26T09:11:25.443Z,9.40
2018-01-26T09:13:53.679Z,9.40
2018-01-26T09:16:22.729Z,9.50
2018-01-26T09:18:51.000Z,9.50
2018-01-26T09:21:19.311Z,9.50
2018-01-26T09:23:47.600Z,9.60
2018-01-26T09:26:15.885Z,9.60
2018-01-26T09:28:44.195Z,9.70
2018-01-26T09:31:12.442Z,9.70
2018-01-26T09:33:41.429Z,9.80
2018-01-26T09:36:10.486Z,9.80
2018-01-26T09:38:38.763Z,9.80
2018-01-26T09:41:07.048Z,9.80
2018-01-26T09:43:35.298Z,9.90
2018-01-26T09:46:03.589Z,9.90
2018-01-26T09:48:31.818Z,9.90
2018-01-26T09:51:00.838Z,10.00
2018-01-26T09:53:29.094Z,10.00
2018-01-26T09:55:58.145Z,10.10
2018-01-26T09:58:26.436Z,10.00
2018-01-26T10:00:54.713Z,10.00
2018-01-26T10:03:22.993Z,10.00
2018-01-26T10:05:51.330Z,10.10
2018-01-26T10:08:19.576Z,10.10
2018-01-26T10:10:48.662Z,10.20
2018-01-26T10:13:17.676Z,10.30
2018-01-26T10:15:45.962Z,10.30
2018-01-26T10:18:14.226Z,10.30
2018-01-26T10:20:42.511Z,10.40
2018-01-26T10:23:10.836Z,10.40
2018-01-26T10:25:39.836Z,10.50
2018-01-26T10:28:08.075Z,10.50
2018-01-26T10:30:36.380Z,10.60
2018-01-26T10:33:04.652Z,10.70
2018-01-26T10:35:32.968Z,10.70
2018-01-26T10:38:02.042Z,10.90
2018-01-26T10:40:30.310Z,10.90
2018-01-26T10:42:58.574Z,10.90
2018-01-26T10:45:26.821Z,11.00
2018-01-26T10:47:55.057Z,11.10
2018-01-26T10:50:23.320Z,11.10
2018-01-26T10:52:51.559Z,11.10
2018-01-26T10:55:19.894Z,11.20
2018-01-26T10:57:48.096Z,11.20
2018-01-26T11:00:16.348Z,11.30
2018-01-26T11:02:45.438Z,11.50
2018-01-26T11:05:13.677Z,11.40
2018-01-26T11:07:41.962Z,11.60
2018-01-26T11:10:10.210Z,11.70
2018-01-26T11:12:38.508Z,11.90
2018-01-26T11:15:06.785Z,12.00
2018-01-26T11:17:35.032Z,12.20
2018-01-26T11:20:03.368Z,12.30
2018-01-26T11:22:33.217Z,12.40
2018-01-26T11:25:02.221Z,12.50
2018-01-26T11:27:30.492Z,12.50
2018-01-26T11:29:58.740Z,12.70
2018-01-26T11:32:27.642Z,12.80
2018-01-26T11:34:57.667Z,13.10
2018-01-26T11:37:26.735Z,13.30
2018-01-26T11:39:54.994Z,13.30
2018-01-26T11:42:23.231Z,13.40
2018-01-26T11:44:51.556Z,13.60
2018-01-26T11:47:19.830Z,13.60
2018-01-26T11:49:48.141Z,13.70
2018-01-26T11:52:16.833Z,13.70
2018-01-26T11:54:46.533Z,13.80
2018-01-26T11:57:14.826Z,13.80
2018-01-26T11:59:43.873Z,13.80
2018-01-26T12:02:12.182Z,13.80
2018-01-26T12:04:40.459Z,13.80
2018-01-26T12:07:08.737Z,13.80
2018-01-26T12:09:36.985Z,13.80
2018-01-26T12:12:05.267Z,13.80
2018-01-26T12:14:33.538Z,13.70
2018-01-26T12:17:01.830Z,13.70
2018-01-26T12:19:30.832Z,13.70
2018-01-26T12:21:59.345Z,13.70
2018-01-26T12:24:28.382Z,13.60
2018-01-26T12:27:00.820Z,13.60
2018-01-26T12:29:29.134Z,13.60
2018-01-26T12:31:57.432Z,13.50
2018-01-26T12:34:25.689Z,13.50
2018-01-26T12:36:54.790Z,13.50
2018-01-26T12:39:23.059Z,13.50
2018-01-26T12:41:51.320Z,13.50
2018-01-26T12:44:19.668Z,13.40
2018-01-26T12:46:48.727Z,13.40
2018-01-26T12:49:17.771Z,13.40
2018-01-26T12:51:47.437Z,13.40
2018-01-26T12:54:15.707Z,13.40
2018-01-26T12:56:43.979Z,13.40
2018-01-26T12:59:13.723Z,13.40
2018-01-26T13:01:43.538Z,13.40
2018-01-26T13:04:12.782Z,13.40
2018-01-26T13:06:41.048Z,13.40
2018-01-26T13:09:09.328Z,13.50
2018-01-26T13:11:37.619Z,13.50
2018-01-26T13:14:05.908Z,13.70
2018-01-26T13:16:34.194Z,13.80
2018-01-26T13:19:03.245Z,13.90
2018-01-26T13:21:31.549Z,14.00
2018-01-26T13:23:59.786Z,14.20
2018-01-26T13:26:28.867Z,14.30
2018-01-26T13:28:57.125Z,14.30
2018-01-26T13:31:25.646Z,14.30
2018-01-26T13:33:54.712Z,14.40
2018-01-26T13:36:23.478Z,14.40
2018-01-26T13:38:51.782Z,14.40
2018-01-26T13:41:20.058Z,14.40
2018-01-26T13:43:48.822Z,14.30
2018-01-26T13:46:17.106Z,14.20
2018-01-26T13:48:45.380Z,14.10
2018-01-26T13:51:13.665Z,14.00
2018-01-26T13:53:41.891Z,14.00
2018-01-26T13:56:10.180Z,13.90
2018-01-26T13:58:38.433Z,13.80
2018-01-26T14:01:07.126Z,13.80
2018-01-26T14:03:35.390Z,13.70
2018-01-26T14:06:05.335Z,13.60
2018-01-26T14:08:33.617Z,13.60
2018-01-26T14:11:01.918Z,13.50
2018-01-26T14:13:30.165Z,13.50
2018-01-26T14:15:58.475Z,13.50
2018-01-26T14:18:26.746Z,13.50
2018-01-26T14:20:54.999Z,13.50
2018-01-26T14:23:23.303Z,13.40
2018-01-26T14:25:51.627Z,13.40
2018-01-26T14:28:21.488Z,13.30
2018-01-26T14:30:49.763Z,13.30
2018-01-26T14:33:18.022Z,13.30
2018-01-26T14:35:46.315Z,13.30
2018-01-26T14:38:14.578Z,13.20
2018-01-26T14:40:43.122Z,13.10
2018-01-26T14:43:11.403Z,13.10
2018-01-26T14:45:40.421Z,13.00
2018-01-26T14:48:08.663Z,13.00
2018-01-26T14:50:37.725Z,12.90
2018-01-26T14:53:05.973Z,12.90
2018-01-26T14:55:34.243Z,12.80
2018-01-26T14:58:02.509Z,12.80
2018-01-26T15:00:30.786Z,12.70
2018-01-26T15:02:59.822Z,12.60
2018-01-26T15:05:28.126Z,12.60
2018-01-26T15:07:56.399Z,12.50
2018-01-26T15:10:25.524Z,12.40
2018-01-26T15:13:02.362Z,12.40
2018-01-26T15:15:30.652Z,12.40
2018-01-26T15:17:58.928Z,12.30
2018-01-26T15:20:27.200Z,12.30
2018-01-26T15:22:55.501Z,12.20
2018-01-26T15:25:23.784Z,12.20
2018-01-26T15:27:53.335Z,12.10
2018-01-26T15:30:21.625Z,12.10
2018-01-26T15:32:49.901Z,12.10
2018-01-26T15:35:18.169Z,12.00
2018-01-26T15:37:46.412Z,12.00
2018-01-26T15:40:14.898Z,12.00
2018-01-26T15:42:43.908Z,11.90
2018-01-26T15:45:12.197Z,11.90
2018-01-26T15:47:40.504Z,11.80
2018-01-26T15:50:08.814Z,11.80
2018-01-26T15:52:37.825Z,11.70
2018-01-26T15:55:06.075Z,11.70
2018-01-26T15:57:35.089Z,11.70
2018-01-26T16:00:03.424Z,11.70
2018-01-26T16:02:31.701Z,11.60
2018-01-26T16:04:59.945Z,11.60
2018-01-26T16:07:29.022Z,11.60
2018-01-26T16:09:57.273Z,11.50
2018-01-26T16:12:26.554Z,11.50
2018-01-26T16:14:54.782Z,11.50
2018-01-26T16:17:23.066Z,11.50
2018-01-26T16:19:52.157Z,11.50
2018-01-26T16:22:20.430Z,11.40
2018-01-26T16:24:49.662Z,11.40
2018-01-26T16:27:18.766Z,11.40
2018-01-26T16:29:47.891Z,11.30
2018-01-26T16:32:16.139Z,11.30
2018-01-26T16:34:44.383Z,11.30
2018-01-26T16:37:13.469Z,11.30
2018-01-26T16:39:41.768Z,11.20
2018-01-26T16:42:10.035Z,11.20
2018-01-26T16:44:38.401Z,11.20
2018-01-26T16:47:06.647Z,11.20
2018-01-26T16:49:34.909Z,11.20
2018-01-26T16:52:03.195Z,11.20
2018-01-26T16:54:31.570Z,11.20
2018-01-26T16:56:59.847Z,11.10
2018-01-26T16:59:28.094Z,11.10
2018-01-26T17:01:57.136Z,11.10
2018-01-26T17:04:26.156Z,11.10
2018-01-26T17:06:54.440Z,11.10
2018-01-26T17:09:22.714Z,11.10
2018-01-26T17:11:50.999Z,11.10
2018-01-26T17:14:19.302Z,11.00
2018-01-26T17:16:47.535Z,11.00
2018-01-26T17:19:15.812Z,11.00
2018-01-26T17:21:44.098Z,11.00
2018-01-26T17:24:12.383Z,10.90
2018-01-26T17:26:41.460Z,10.90
2018-01-26T17:29:10.480Z,10.80
2018-01-26T17:31:39.003Z,10.80
2018-01-26T17:34:08.078Z,10.80
2018-01-26T17:36:36.379Z,10.80
2018-01-26T17:39:04.681Z,10.80
2018-01-26T17:41:33.754Z,10.80
2018-01-26T17:44:02.375Z,10.80
2018-01-26T17:46:31.443Z,10.80
2018-01-26T17:49:00.606Z,10.80
2018-01-26T17:51:28.915Z,10.80
2018-01-26T17:53:57.206Z,10.80
2018-01-26T17:56:25.469Z,10.80
2018-01-26T17:58:53.730Z,10.70
2018-01-26T18:01:22.020Z,10.70
2018-01-26T18:03:51.144Z,10.70
2018-01-26T18:06:20.234Z,10.70
2018-01-26T18:08:49.539Z,10.70
2018-01-26T18:11:18.585Z,10.70
2018-01-26T18:13:46.843Z,10.70
2018-01-26T18:16:15.099Z,10.70
2018-01-26T18:18:43.408Z,10.70
2018-01-26T18:21:11.655Z,10.70
2018-01-26T18:23:40.919Z,10.60
2018-01-26T18:26:09.170Z,10.60
2018-01-26T18:28:37.471Z,10.70
2018-01-26T18:31:05.744Z,10.60
2018-01-26T18:33:34.178Z,10.70
2018-01-26T18:36:02.437Z,10.60
2018-01-26T18:38:31.445Z,10.60
2018-01-26T18:41:00.281Z,10.60
2018-01-26T18:43:28.595Z,10.60
2018-01-26T18:45:57.595Z,10.50
2018-01-26T18:48:25.888Z,10.50
2018-01-26T18:50:54.181Z,10.50
2018-01-26T18:53:22.435Z,10.50
2018-01-26T18:55:50.702Z,10.50
2018-01-26T18:58:19.745Z,10.40
2018-01-26T19:00:48.037Z,10.40
2018-01-26T19:03:16.322Z,10.40
2018-01-26T19:05:44.597Z,10.40
2018-01-26T19:08:12.887Z,10.30
2018-01-26T19:10:41.153Z,10.40
2018-01-26T19:13:09.962Z,10.30
2018-01-26T19:15:39.609Z,10.30
2018-01-26T19:18:07.902Z,10.30
2018-01-26T19:20:36.143Z,10.30
2018-01-26T19:23:04.387Z,10.30
2018-01-26T19:25:33.454Z,10.20
2018-01-26T19:28:01.701Z,10.20
2018-01-26T19:30:30.021Z,10.20
2018-01-26T19:32:58.309Z,10.30
2018-01-26T19:35:26.592Z,10.30
2018-01-26T19:37:54.898Z,10.20
2018-01-26T19:40:23.190Z,10.20
2018-01-26T19:42:51.446Z,10.20
2018-01-26T19:45:20.445Z,10.20
2018-01-26T19:47:48.777Z,10.20
2018-01-26T19:50:17.056Z,10.20
2018-01-26T19:52:45.304Z,10.20
2018-01-26T19:55:13.613Z,10.20
2018-01-26T19:57:41.908Z,10.20
2018-01-26T20:00:10.208Z,10.20
2018-01-26T20:02:38.505Z,10.20
2018-01-26T20:05:24.306Z,10.20
2018-01-26T20:08:16.089Z,10.10
2018-01-26T20:10:45.127Z,10.10
2018-01-26T20:13:18.967Z,10.10
2018-01-26T20:15:47.489Z,10.10
2018-01-26T20:18:16.491Z,10.00
2018-01-26T20:20:44.856Z,10.00
2018-01-26T20:23:13.196Z,10.00
2018-01-26T20:25:41.433Z,10.00
2018-01-26T20:28:09.836Z,9.90
2018-01-26T20:30:38.114Z,9.90
2018-01-26T20:33:06.398Z,9.90
2018-01-26T20:35:34.725Z,9.90
2018-01-26T20:38:04.844Z,9.90
2018-01-26T20:40:33.933Z,9.90
2018-01-26T20:43:02.951Z,9.90
2018-01-26T20:45:31.198Z,9.80
2018-01-26T20:47:59.483Z,9.80
2018-01-26T20:50:28.500Z,9.70
2018-01-26T20:52:56.828Z,9.70
2018-01-26T20:55:25.098Z,9.70
2018-01-26T20:57:53.367Z,9.70
2018-01-26T21:00:21.681Z,9.70
2018-01-26T21:02:49.931Z,9.60
2018-01-26T21:05:18.253Z,9.60
2018-01-26T21:07:47.271Z,9.60
2018-01-26T21:10:15.628Z,9.60
2018-01-26T21:12:44.683Z,9.60
2018-01-26T21:15:12.956Z,9.60
2018-01-26T21:17:41.254Z,9.50
2018-01-26T21:20:09.520Z,9.50
2018-01-26T21:22:37.803Z,9.50
2018-01-26T21:25:06.062Z,9.50
2018-01-26T21:27:35.168Z,9.50
2018-01-26T21:30:03.417Z,9.50
2018-01-26T21:32:31.700Z,9.40
2018-01-26T21:34:59.991Z,9.40
2018-01-26T21:37:28.287Z,9.40
2018-01-26T21:39:56.654Z,9.40
2018-01-26T21:42:24.993Z,9.40
2018-01-26T21:44:53.983Z,9.40
2018-01-26T21:47:22.276Z,9.40
2018-01-26T21:49:51.340Z,9.40
2018-01-26T21:52:19.613Z,9.40
2018-01-26T21:54:48.655Z,9.30
2018-01-26T21:57:16.899Z,9.30
2018-01-26T21:59:45.120Z,9.30
2018-01-26T22:02:13.458Z,9.30
2018-01-26T22:04:47.738Z,9.30
2018-01-26T22:07:21.704Z,9.30
2018-01-26T22:09:49.952Z,9.30
2018-01-26T22:12:18.200Z,9.30
2018-01-26T22:14:47.267Z,9.30
2018-01-26T22:17:15.495Z,9.20
2018-01-26T22:19:43.792Z,9.30
2018-01-26T22:22:12.082Z,9.30
2018-01-26T22:24:40.347Z,9.30
2018-01-26T22:27:08.603Z,9.30
2018-01-26T22:29:36.943Z,9.20
2018-01-26T22:32:05.211Z,9.20
2018-01-26T22:34:33.493Z,9.20
2018-01-26T22:37:01.759Z,9.20
2018-01-26T22:39:30.050Z,9.20
2018-01-26T22:41:58.294Z,9.20
2018-01-26T22:44:26.589Z,9.20
2018-01-26T22:46:54.817Z,9.20
2018-01-26T22:49:23.892Z,9.10
2018-01-26T22:51:52.172Z,9.10
2018-01-26T22:54:20.388Z,9.10
2018-01-26T22:56:48.720Z,9.10
2018-01-26T22:59:17.000Z,9.10
2018-01-26T23:01:46.024Z,9.10
2018-01-26T23:04:14.992Z,9.10
2018-01-26T23:06:44.079Z,9.10
2018-01-26T23:09:12.378Z,9.10
2018-01-26T23:11:40.625Z,9.00
2018-01-26T23:14:08.928Z,9.00
2018-01-26T23:16:37.921Z,9.00
2018-01-26T23:19:06.951Z,8.90
2018-01-26T23:21:35.206Z,8.90
2018-01-26T23:24:04.205Z,8.90
2018-01-26T23:26:32.495Z,8.90
2018-01-26T23:29:00.763Z,8.90
2018-01-26T23:31:29.024Z,8.90
2018-01-26T23:33:57.308Z,8.80
2018-01-26T23:36:26.351Z,8.90
2018-01-26T23:38:54.596Z,8.80
2018-01-26T23:41:22.917Z,8.80
2018-01-26T23:43:51.165Z,8.80
2018-01-26T23:46:19.396Z,8.80
2018-01-26T23:48:48.413Z,8.80
2018-01-26T23:51:16.704Z,8.80
2018-01-26T23:53:44.987Z,8.80
2018-01-26T23:56:13.231Z,8.80
2018-01-26T23:58:41.512Z,8.80
